Galveston, TX

4:17 AM CDT on June 30, 2015 (GMT -0500)
Galveston.com | | Change Station
CLOSE
Current Station
Personal Weather Station
Location: Galveston, TX
Elevation: 36 ft
Nearby Weather Stations

Elev 36 ft 29.31 °N, 94.79 °W | Updated 6 seconds ago

Mostly Cloudy
Mostly Cloudy
82.4 °F
Feels Like 91 °F
N
2.8
Wind Variable Wind from SW
Gusts 6.0 mph

Today
High -- | Low -- °F
--% Chance of Precip.
Yesterday
High -- | Low -- °F
Precip. -- in
6:22 AM 8:22 PM
Waxing Gibbous, 96% visible
Pressure 30.00 in
Visibility 9.0 miles
Clouds Clear
Heat Index 91 °F
Dew Point 77 °F
Humidity 85%
Rainfall in
Snow Depth Not available.
UV 0 out of 12
Pollen 1.40 out of 12
Air Quality Not available.
Flu Activity Local Activity
METAR KXIH 300855Z AUTO 22015KT 9SM CLR 29/25 A3000 RMK A01

More Conditions Fewer Conditions

Pressure 30.00 in
Visibility 9.0 miles
Clouds Clear
Heat Index 91 °F
Dew Point 77 °F
Humidity 85%
Rainfall in
Snow Depth Not available.
UV 0 out of 12
Pollen 1.40 out of 12
Air Quality Not available.
Flu Activity Local Activity
METAR KXIH 300855Z AUTO 22015KT 9SM CLR 29/25 A3000 RMK A01

More Conditions Fewer Conditions

10-Day Weather Forecast

×

Almanac

Astronomy

Jun. 30, 2015 Rise Set
Actual Time
Civil Twilight
Nautical Twilight
Astronomical Twilight
Moon
Length of Visible Light
Length of Day
Tomorrow will be .
, % of the Moon is Illuminated

Today's Extremes

State Highs State Lows

Community

WunderPhotos

Upload Photos

1,833,983 photos uploaded!

WunderBlogs® & News

Nearby

Air Quality

  Air Quality AQ Index Pollutant
Not available.

Snow Depth

Station Depth Elevation

Earthquake Activity

City Distance Mag. Time & Date
Minimum magnitude displayed is 2.5.

Coastal Water Temperatures

Place Temperature

Stations

Nearby Weather Stations

Station Location Temp. Windchill Dew Point Humidity Wind Precip. Elev Updated Type